Portada
METAR-TAF:

METAR-TAF

Aeroports :

Malindi, Kenya

latitud: 03-14S, longitud: 040-06E, altitud: 20 m

Observació

L'informe es va fer fa 6 hores i 22 minuts, a les 19:00 UTC
Vent 12 kt del Est
Temperatura 26°C
Humitat 79%
Pressió 1011 hPa
Visibilitat 10 km o més
Núvols disperses a una alçada de 2000 ft

METAR: HKML 291900Z 08012KT 9999 SCT020 26/22 Q1011

Hora: 04:22 (01:22 UTC)

Pronòstic

L'informe es va fer fa 2 hores i 22 minuts, a les 23:00 UTC
Pronòstic vàlid del 30 a les 00 UTC al 31 a les 00 UTC
Vent kt del Nord
Visibilitat 10 km o més
Núvols disperses a una alçada de 1800 ft
Evolucionant progressivament
l' 30 a les 09 UTC al 30 a les 12 UTC
Vent 15 kt del Est
Escasses núvols a una alçada de 2500 ft
Evolucionant progressivament
l' 30 a les 21 UTC al 31 a les 00 UTC
Vent 5 kt del Est/Nord-Est
Núvols disperses a una alçada de 2000 ft

TAF: HKML 292300Z 3000/3100 00000KT 9999 SCT018 BECMG 3009/3012 09015KT FEW025 BECMG 3021/3100 06005KT SCT020

Observacions i pronòstics meteorològics de més de 4000 aeroports (METAR i TAF).

Les estacions disponibles són els punts grocs i vermells al mapa.

Posi el ratolí al punt desitjat per veure el nom de l'estació.

Feu clic per veure les observacions i els pronòstics meteorològics.

Per canviar el mapa: feu clic els botons verds amb una creu de color negre per apropar; al botó verd amb un guió per allunyar la imatge; o en les fletxes verdes per a mapes adjacents.


METAR-TAF: